sensor_id;sensor_type;location;lat;lon;timestamp;pressure;altitude;pressure_sealevel;temperature
68127;BMP180;54931;52.098;21.006;2023-09-07T00:00:18;101224.40;;;12.98
68127;BMP180;54931;52.098;21.006;2023-09-07T00:03:07;101225.80;;;12.90
68127;BMP180;54931;52.098;21.006;2023-09-07T00:05:35;101225.60;;;12.90
68127;BMP180;54931;52.098;21.006;2023-09-07T00:08:04;101225.00;;;12.80
68127;BMP180;54931;52.098;21.006;2023-09-07T00:10:33;101223.00;;;12.80
68127;BMP180;54931;52.098;21.006;2023-09-07T00:13:04;101225.80;;;12.80
68127;BMP180;54931;52.098;21.006;2023-09-07T00:15:37;101224.00;;;12.80
68127;BMP180;54931;52.098;21.006;2023-09-07T00:18:05;101225.40;;;12.80
68127;BMP180;54931;52.098;21.006;2023-09-07T00:20:33;101219.60;;;12.80
68127;BMP180;54931;52.098;21.006;2023-09-07T00:23:01;101218.80;;;12.80
68127;BMP180;54931;52.098;21.006;2023-09-07T00:25:29;101220.80;;;12.80
68127;BMP180;54931;52.098;21.006;2023-09-07T00:27:56;101220.00;;;12.78
68127;BMP180;54931;52.098;21.006;2023-09-07T00:30:24;101219.20;;;12.70
68127;BMP180;54931;52.098;21.006;2023-09-07T00:32:52;101218.00;;;12.70
68127;BMP180;54931;52.098;21.006;2023-09-07T00:35:20;101214.80;;;12.70
68127;BMP180;54931;52.098;21.006;2023-09-07T00:37:48;101214.60;;;12.70
68127;BMP180;54931;52.098;21.006;2023-09-07T00:40:15;101220.20;;;12.70
68127;BMP180;54931;52.098;21.006;2023-09-07T00:42:43;101220.40;;;12.70
68127;BMP180;54931;52.098;21.006;2023-09-07T00:45:11;101222.60;;;12.70
68127;BMP180;54931;52.098;21.006;2023-09-07T00:47:39;101216.40;;;12.70
68127;BMP180;54931;52.098;21.006;2023-09-07T00:50:08;101212.80;;;12.64
68127;BMP180;54931;52.098;21.006;2023-09-07T00:52:37;101214.60;;;12.60
68127;BMP180;54931;52.098;21.006;2023-09-07T00:55:08;101216.20;;;12.60
68127;BMP180;54931;52.098;21.006;2023-09-07T00:57:37;101219.20;;;12.60
68127;BMP180;54931;52.098;21.006;2023-09-07T01:00:07;101219.60;;;12.60
68127;BMP180;54931;52.098;21.006;2023-09-07T01:02:37;101215.80;;;12.60
68127;BMP180;54931;52.098;21.006;2023-09-07T01:05:05;101217.80;;;12.56
68127;BMP180;54931;52.098;21.006;2023-09-07T01:07:45;101215.40;;;12.50
68127;BMP180;54931;52.098;21.006;2023-09-07T01:10:14;101213.00;;;12.50
68127;BMP180;54931;52.098;21.006;2023-09-07T01:12:42;101213.40;;;12.50
68127;BMP180;54931;52.098;21.006;2023-09-07T01:15:10;101212.80;;;12.50
68127;BMP180;54931;52.098;21.006;2023-09-07T01:17:39;101208.60;;;12.50
68127;BMP180;54931;52.098;21.006;2023-09-07T01:20:09;101211.20;;;12.50
68127;BMP180;54931;52.098;21.006;2023-09-07T01:22:38;101211.20;;;12.50
68127;BMP180;54931;52.098;21.006;2023-09-07T01:25:07;101209.60;;;12.48
68127;BMP180;54931;52.098;21.006;2023-09-07T01:27:35;101211.40;;;12.48
68127;BMP180;54931;52.098;21.006;2023-09-07T01:30:04;101215.20;;;12.46
68127;BMP180;54931;52.098;21.006;2023-09-07T01:32:33;101215.80;;;12.40
68127;BMP180;54931;52.098;21.006;2023-09-07T01:35:01;101209.20;;;12.40
68127;BMP180;54931;52.098;21.006;2023-09-07T01:37:32;101211.00;;;12.40
68127;BMP180;54931;52.098;21.006;2023-09-07T01:40:00;101208.60;;;12.40
68127;BMP180;54931;52.098;21.006;2023-09-07T01:42:28;101208.60;;;12.40
68127;BMP180;54931;52.098;21.006;2023-09-07T01:44:56;101208.00;;;12.40
68127;BMP180;54931;52.098;21.006;2023-09-07T01:47:23;101214.00;;;12.32
68127;BMP180;54931;52.098;21.006;2023-09-07T01:49:51;101212.20;;;12.30
68127;BMP180;54931;52.098;21.006;2023-09-07T01:52:18;101211.80;;;12.30
68127;BMP180;54931;52.098;21.006;2023-09-07T01:54:46;101206.40;;;12.30
68127;BMP180;54931;52.098;21.006;2023-09-07T01:57:13;101209.00;;;12.30
68127;BMP180;54931;52.098;21.006;2023-09-07T01:59:41;101210.00;;;12.22
68127;BMP180;54931;52.098;21.006;2023-09-07T02:02:09;101213.60;;;12.20
68127;BMP180;54931;52.098;21.006;2023-09-07T02:04:36;101210.60;;;12.20
68127;BMP180;54931;52.098;21.006;2023-09-07T02:07:03;101213.00;;;12.20
68127;BMP180;54931;52.098;21.006;2023-09-07T02:09:31;101209.20;;;12.20
68127;BMP180;54931;52.098;21.006;2023-09-07T02:11:59;101200.80;;;12.10
68127;BMP180;54931;52.098;21.006;2023-09-07T02:14:27;101206.00;;;12.10
68127;BMP180;54931;52.098;21.006;2023-09-07T02:16:54;101207.80;;;12.10
68127;BMP180;54931;52.098;21.006;2023-09-07T02:19:22;101211.60;;;12.10
68127;BMP180;54931;52.098;21.006;2023-09-07T02:21:50;101207.60;;;12.00
68127;BMP180;54931;52.098;21.006;2023-09-07T02:24:20;101212.00;;;12.00
68127;BMP180;54931;52.098;21.006;2023-09-07T02:26:47;101207.60;;;12.00
68127;BMP180;54931;52.098;21.006;2023-09-07T02:29:15;101208.60;;;12.00
68127;BMP180;54931;52.098;21.006;2023-09-07T02:31:42;101208.00;;;12.00
68127;BMP180;54931;52.098;21.006;2023-09-07T02:34:10;101219.20;;;11.90
68127;BMP180;54931;52.098;21.006;2023-09-07T02:36:37;101218.00;;;11.90
68127;BMP180;54931;52.098;21.006;2023-09-07T02:39:05;101220.40;;;11.90
68127;BMP180;54931;52.098;21.006;2023-09-07T02:41:34;101223.60;;;11.90
68127;BMP180;54931;52.098;21.006;2023-09-07T02:44:01;101224.20;;;11.88
68127;BMP180;54931;52.098;21.006;2023-09-07T02:46:28;101229.20;;;11.80
68127;BMP180;54931;52.098;21.006;2023-09-07T02:48:57;101228.40;;;11.80
68127;BMP180;54931;52.098;21.006;2023-09-07T02:51:25;101230.20;;;11.80
68127;BMP180;54931;52.098;21.006;2023-09-07T02:53:56;101229.40;;;11.80
68127;BMP180;54931;52.098;21.006;2023-09-07T02:56:23;101230.40;;;11.80
68127;BMP180;54931;52.098;21.006;2023-09-07T02:58:52;101229.80;;;11.80
68127;BMP180;54931;52.098;21.006;2023-09-07T03:01:20;101229.00;;;11.80
68127;BMP180;54931;52.098;21.006;2023-09-07T03:03:48;101224.40;;;11.72
68127;BMP180;54931;52.098;21.006;2023-09-07T03:06:16;101228.60;;;11.70
68127;BMP180;54931;52.098;21.006;2023-09-07T03:08:44;101231.60;;;11.70
68127;BMP180;54931;52.098;21.006;2023-09-07T03:11:12;101229.00;;;11.70
68127;BMP180;54931;52.098;21.006;2023-09-07T03:13:39;101231.20;;;11.70
68127;BMP180;54931;52.098;21.006;2023-09-07T03:16:07;101229.40;;;11.70
68127;BMP180;54931;52.098;21.006;2023-09-07T03:18:35;101232.40;;;11.70
68127;BMP180;54931;52.098;21.006;2023-09-07T03:21:03;101232.20;;;11.70
68127;BMP180;54931;52.098;21.006;2023-09-07T03:23:32;101233.20;;;11.70
68127;BMP180;54931;52.098;21.006;2023-09-07T03:26:00;101231.60;;;11.70
68127;BMP180;54931;52.098;21.006;2023-09-07T03:28:28;101229.20;;;11.70
68127;BMP180;54931;52.098;21.006;2023-09-07T03:30:55;101231.00;;;11.70
68127;BMP180;54931;52.098;21.006;2023-09-07T03:33:23;101231.80;;;11.70
68127;BMP180;54931;52.098;21.006;2023-09-07T03:35:51;101234.60;;;11.68
68127;BMP180;54931;52.098;21.006;2023-09-07T03:38:20;101233.80;;;11.62
68127;BMP180;54931;52.098;21.006;2023-09-07T03:40:47;101242.00;;;11.60
68127;BMP180;54931;52.098;21.006;2023-09-07T03:43:15;101240.00;;;11.60
68127;BMP180;54931;52.098;21.006;2023-09-07T03:45:43;101244.00;;;11.60
68127;BMP180;54931;52.098;21.006;2023-09-07T03:48:11;101239.20;;;11.60
68127;BMP180;54931;52.098;21.006;2023-09-07T03:50:38;101240.40;;;11.60
68127;BMP180;54931;52.098;21.006;2023-09-07T03:53:06;101238.80;;;11.60
68127;BMP180;54931;52.098;21.006;2023-09-07T03:55:44;101245.00;;;11.60
68127;BMP180;54931;52.098;21.006;2023-09-07T03:58:12;101245.60;;;11.60
68127;BMP180;54931;52.098;21.006;2023-09-07T04:00:41;101242.60;;;11.60
68127;BMP180;54931;52.098;21.006;2023-09-07T04:03:09;101242.20;;;11.60
68127;BMP180;54931;52.098;21.006;2023-09-07T04:05:38;101246.00;;;11.60
68127;BMP180;54931;52.098;21.006;2023-09-07T04:08:06;101240.60;;;11.60
68127;BMP180;54931;52.098;21.006;2023-09-07T04:10:37;101241.60;;;11.60
68127;BMP180;54931;52.098;21.006;2023-09-07T04:13:06;101243.60;;;11.60
68127;BMP180;54931;52.098;21.006;2023-09-07T04:15:42;101247.00;;;11.60
68127;BMP180;54931;52.098;21.006;2023-09-07T04:18:15;101246.80;;;11.60
68127;BMP180;54931;52.098;21.006;2023-09-07T04:20:44;101249.20;;;11.60
68127;BMP180;54931;52.098;21.006;2023-09-07T04:23:12;101246.00;;;11.64
68127;BMP180;54931;52.098;21.006;2023-09-07T04:25:39;101242.60;;;11.70
68127;BMP180;54931;52.098;21.006;2023-09-07T04:28:08;101247.00;;;11.70
68127;BMP180;54931;52.098;21.006;2023-09-07T04:30:41;101243.20;;;11.80
68127;BMP180;54931;52.098;21.006;2023-09-07T04:33:09;101244.60;;;11.80
68127;BMP180;54931;52.098;21.006;2023-09-07T04:35:36;101243.80;;;11.80
68127;BMP180;54931;52.098;21.006;2023-09-07T04:38:04;101250.80;;;11.90
68127;BMP180;54931;52.098;21.006;2023-09-07T04:40:31;101254.00;;;11.98
68127;BMP180;54931;52.098;21.006;2023-09-07T04:42:59;101255.80;;;12.00
68127;BMP180;54931;52.098;21.006;2023-09-07T04:45:28;101254.40;;;12.10
68127;BMP180;54931;52.098;21.006;2023-09-07T04:47:55;101257.60;;;12.18
68127;BMP180;54931;52.098;21.006;2023-09-07T04:50:23;101254.40;;;12.20
68127;BMP180;54931;52.098;21.006;2023-09-07T04:52:53;101256.20;;;12.30
68127;BMP180;54931;52.098;21.006;2023-09-07T04:55:21;101258.60;;;12.40
68127;BMP180;54931;52.098;21.006;2023-09-07T04:57:49;101260.40;;;12.62
68127;BMP180;54931;52.098;21.006;2023-09-07T05:00:17;101265.00;;;13.06
68127;BMP180;54931;52.098;21.006;2023-09-07T05:02:46;101273.80;;;13.48
68127;BMP180;54931;52.098;21.006;2023-09-07T05:05:14;101276.00;;;13.96
68127;BMP180;54931;52.098;21.006;2023-09-07T05:07:42;101275.40;;;14.48
68127;BMP180;54931;52.098;21.006;2023-09-07T05:10:09;101278.60;;;14.96
68127;BMP180;54931;52.098;21.006;2023-09-07T05:12:39;101280.60;;;15.44
68127;BMP180;54931;52.098;21.006;2023-09-07T05:15:08;101286.60;;;15.82
68127;BMP180;54931;52.098;21.006;2023-09-07T05:17:36;101286.00;;;16.20
68127;BMP180;54931;52.098;21.006;2023-09-07T05:20:07;101294.20;;;16.60
68127;BMP180;54931;52.098;21.006;2023-09-07T05:22:36;101288.80;;;16.96
68127;BMP180;54931;52.098;21.006;2023-09-07T05:25:07;101290.20;;;17.20
68127;BMP180;54931;52.098;21.006;2023-09-07T05:27:36;101286.80;;;17.42
68127;BMP180;54931;52.098;21.006;2023-09-07T05:30:05;101289.20;;;17.70
68127;BMP180;54931;52.098;21.006;2023-09-07T05:32:34;101293.60;;;18.00
68127;BMP180;54931;52.098;21.006;2023-09-07T05:35:01;101292.00;;;18.20
68127;BMP180;54931;52.098;21.006;2023-09-07T05:37:30;101288.40;;;18.40
68127;BMP180;54931;52.098;21.006;2023-09-07T05:39:58;101290.40;;;18.70
68127;BMP180;54931;52.098;21.006;2023-09-07T05:42:26;101295.60;;;18.82
68127;BMP180;54931;52.098;21.006;2023-09-07T05:44:54;101296.60;;;19.02
68127;BMP180;54931;52.098;21.006;2023-09-07T05:47:22;101296.60;;;19.30
68127;BMP180;54931;52.098;21.006;2023-09-07T05:49:49;101298.80;;;19.40
68127;BMP180;54931;52.098;21.006;2023-09-07T05:52:17;101302.40;;;19.76
68127;BMP180;54931;52.098;21.006;2023-09-07T05:54:45;101301.00;;;20.00
68127;BMP180;54931;52.098;21.006;2023-09-07T05:57:14;101308.80;;;20.32
68127;BMP180;54931;52.098;21.006;2023-09-07T05:59:41;101309.40;;;20.50
68127;BMP180;54931;52.098;21.006;2023-09-07T06:02:09;101310.60;;;20.62
68127;BMP180;54931;52.098;21.006;2023-09-07T06:04:37;101310.80;;;20.86
68127;BMP180;54931;52.098;21.006;2023-09-07T06:07:05;101311.80;;;21.10
68127;BMP180;54931;52.098;21.006;2023-09-07T06:09:32;101317.80;;;21.28
68127;BMP180;54931;52.098;21.006;2023-09-07T06:12:00;101315.60;;;21.48
68127;BMP180;54931;52.098;21.006;2023-09-07T06:14:27;101316.20;;;21.60
68127;BMP180;54931;52.098;21.006;2023-09-07T06:16:55;101321.00;;;21.94
68127;BMP180;54931;52.098;21.006;2023-09-07T06:19:23;101319.40;;;22.20
68127;BMP180;54931;52.098;21.006;2023-09-07T06:21:52;101323.00;;;22.40
68127;BMP180;54931;52.098;21.006;2023-09-07T06:24:19;101327.00;;;22.40
68127;BMP180;54931;52.098;21.006;2023-09-07T06:26:47;101328.60;;;22.48
68127;BMP180;54931;52.098;21.006;2023-09-07T06:29:16;101328.40;;;22.60
68127;BMP180;54931;52.098;21.006;2023-09-07T06:31:43;101330.40;;;22.50
68127;BMP180;54931;52.098;21.006;2023-09-07T06:34:11;101334.00;;;22.50
68127;BMP180;54931;52.098;21.006;2023-09-07T06:36:38;101335.00;;;22.66
68127;BMP180;54931;52.098;21.006;2023-09-07T06:39:06;101338.40;;;22.90
68127;BMP180;54931;52.098;21.006;2023-09-07T06:41:34;101337.60;;;23.12
68127;BMP180;54931;52.098;21.006;2023-09-07T06:44:02;101336.00;;;23.30
68127;BMP180;54931;52.098;21.006;2023-09-07T06:46:30;101340.60;;;23.50
68127;BMP180;54931;52.098;21.006;2023-09-07T06:48:58;101335.00;;;23.70
68127;BMP180;54931;52.098;21.006;2023-09-07T06:51:25;101334.20;;;23.88
68127;BMP180;54931;52.098;21.006;2023-09-07T06:53:53;101338.20;;;23.98
68127;BMP180;54931;52.098;21.006;2023-09-07T06:56:21;101340.80;;;24.10
68127;BMP180;54931;52.098;21.006;2023-09-07T06:58:48;101341.80;;;24.00
68127;BMP180;54931;52.098;21.006;2023-09-07T07:01:16;101346.60;;;24.02
68127;BMP180;54931;52.098;21.006;2023-09-07T07:03:44;101342.40;;;24.26
68127;BMP180;54931;52.098;21.006;2023-09-07T07:06:11;101348.80;;;24.50
68127;BMP180;54931;52.098;21.006;2023-09-07T07:08:38;101349.80;;;24.80
68127;BMP180;54931;52.098;21.006;2023-09-07T07:11:06;101358.20;;;25.08
68127;BMP180;54931;52.098;21.006;2023-09-07T07:13:35;101355.40;;;25.06
68127;BMP180;54931;52.098;21.006;2023-09-07T07:16:04;101351.60;;;24.90
68127;BMP180;54931;52.098;21.006;2023-09-07T07:18:32;101358.00;;;24.90
68127;BMP180;54931;52.098;21.006;2023-09-07T07:20:59;101356.80;;;25.00
68127;BMP180;54931;52.098;21.006;2023-09-07T07:23:27;101362.60;;;24.98
68127;BMP180;54931;52.098;21.006;2023-09-07T07:25:54;101363.20;;;25.10
68127;BMP180;54931;52.098;21.006;2023-09-07T07:28:22;101362.80;;;25.40
68127;BMP180;54931;52.098;21.006;2023-09-07T07:30:50;101365.00;;;25.50
68127;BMP180;54931;52.098;21.006;2023-09-07T07:33:20;101370.60;;;25.72
68127;BMP180;54931;52.098;21.006;2023-09-07T07:35:47;101367.20;;;25.90
68127;BMP180;54931;52.098;21.006;2023-09-07T07:38:15;101370.20;;;26.10
68127;BMP180;54931;52.098;21.006;2023-09-07T07:40:42;101374.00;;;26.36
68127;BMP180;54931;52.098;21.006;2023-09-07T07:43:10;101375.40;;;26.40
68127;BMP180;54931;52.098;21.006;2023-09-07T07:45:40;101377.40;;;26.20
68127;BMP180;54931;52.098;21.006;2023-09-07T07:48:07;101375.40;;;26.20
68127;BMP180;54931;52.098;21.006;2023-09-07T07:50:37;101375.60;;;26.20
68127;BMP180;54931;52.098;21.006;2023-09-07T07:53:06;101380.40;;;26.30
68127;BMP180;54931;52.098;21.006;2023-09-07T07:55:36;101384.00;;;26.30
68127;BMP180;54931;52.098;21.006;2023-09-07T07:58:09;101386.20;;;26.70
68127;BMP180;54931;52.098;21.006;2023-09-07T08:00:40;101387.60;;;26.80
68127;BMP180;54931;52.098;21.006;2023-09-07T08:03:15;101388.00;;;26.80
68127;BMP180;54931;52.098;21.006;2023-09-07T08:05:43;101393.00;;;26.70
68127;BMP180;54931;52.098;21.006;2023-09-07T08:08:10;101389.60;;;26.80
68127;BMP180;54931;52.098;21.006;2023-09-07T08:10:38;101388.00;;;27.00
68127;BMP180;54931;52.098;21.006;2023-09-07T08:13:07;101386.40;;;27.20
68127;BMP180;54931;52.098;21.006;2023-09-07T08:15:35;101384.40;;;27.30
68127;BMP180;54931;52.098;21.006;2023-09-07T08:18:04;101386.20;;;27.54
68127;BMP180;54931;52.098;21.006;2023-09-07T08:20:32;101385.20;;;27.70
68127;BMP180;54931;52.098;21.006;2023-09-07T08:23:00;101385.00;;;27.90
68127;BMP180;54931;52.098;21.006;2023-09-07T08:25:31;101386.20;;;28.20
68127;BMP180;54931;52.098;21.006;2023-09-07T08:27:59;101385.80;;;28.58
68127;BMP180;54931;52.098;21.006;2023-09-07T08:30:27;101387.80;;;28.50
68127;BMP180;54931;52.098;21.006;2023-09-07T08:32:58;101388.40;;;28.72
68127;BMP180;54931;52.098;21.006;2023-09-07T08:35:26;101385.60;;;29.00
68127;BMP180;54931;52.098;21.006;2023-09-07T08:37:54;101385.80;;;29.16
68127;BMP180;54931;52.098;21.006;2023-09-07T08:40:26;101385.00;;;29.10
68127;BMP180;54931;52.098;21.006;2023-09-07T08:42:55;101384.00;;;29.10
68127;BMP180;54931;52.098;21.006;2023-09-07T08:45:26;101387.80;;;29.06
68127;BMP180;54931;52.098;21.006;2023-09-07T08:47:57;101392.80;;;29.28
68127;BMP180;54931;52.098;21.006;2023-09-07T08:50:27;101390.20;;;29.32
68127;BMP180;54931;52.098;21.006;2023-09-07T08:52:56;101390.80;;;29.40
68127;BMP180;54931;52.098;21.006;2023-09-07T08:55:28;101384.20;;;29.68
68127;BMP180;54931;52.098;21.006;2023-09-07T08:57:56;101385.00;;;29.86
68127;BMP180;54931;52.098;21.006;2023-09-07T09:00:25;101386.80;;;30.00
68127;BMP180;54931;52.098;21.006;2023-09-07T09:02:53;101384.80;;;29.60
68127;BMP180;54931;52.098;21.006;2023-09-07T09:05:23;101387.20;;;29.40
68127;BMP180;54931;52.098;21.006;2023-09-07T09:08:05;101388.20;;;29.28
68127;BMP180;54931;52.098;21.006;2023-09-07T09:10:33;101393.20;;;29.60
68127;BMP180;54931;52.098;21.006;2023-09-07T09:13:01;101390.40;;;29.94
68127;BMP180;54931;52.098;21.006;2023-09-07T09:15:30;101390.60;;;30.20
68127;BMP180;54931;52.098;21.006;2023-09-07T09:18:10;101388.40;;;30.30
68127;BMP180;54931;52.098;21.006;2023-09-07T09:20:39;101389.00;;;30.40
68127;BMP180;54931;52.098;21.006;2023-09-07T09:23:07;101385.20;;;30.20
68127;BMP180;54931;52.098;21.006;2023-09-07T09:25:35;101383.00;;;30.00
68127;BMP180;54931;52.098;21.006;2023-09-07T09:28:05;101385.00;;;30.02
68127;BMP180;54931;52.098;21.006;2023-09-07T09:30:33;101385.20;;;30.06
68127;BMP180;54931;52.098;21.006;2023-09-07T09:33:01;101388.80;;;30.00
68127;BMP180;54931;52.098;21.006;2023-09-07T09:35:30;101386.80;;;29.94
68127;BMP180;54931;52.098;21.006;2023-09-07T09:38:01;101387.20;;;30.16
68127;BMP180;54931;52.098;21.006;2023-09-07T09:40:33;101386.40;;;30.20
68127;BMP180;54931;52.098;21.006;2023-09-07T09:43:05;101384.80;;;30.20
68127;BMP180;54931;52.098;21.006;2023-09-07T09:45:34;101382.40;;;30.20
68127;BMP180;54931;52.098;21.006;2023-09-07T09:48:05;101383.00;;;30.30
68127;BMP180;54931;52.098;21.006;2023-09-07T09:50:33;101384.60;;;30.30
68127;BMP180;54931;52.098;21.006;2023-09-07T09:53:06;101382.60;;;30.20
68127;BMP180;54931;52.098;21.006;2023-09-07T09:55:35;101383.20;;;30.28
68127;BMP180;54931;52.098;21.006;2023-09-07T09:58:03;101384.00;;;30.20
68127;BMP180;54931;52.098;21.006;2023-09-07T10:00:31;101382.80;;;30.10
68127;BMP180;54931;52.098;21.006;2023-09-07T10:05:38;101387.40;;;30.16
68127;BMP180;54931;52.098;21.006;2023-09-07T10:08:13;101387.20;;;29.80
68127;BMP180;54931;52.098;21.006;2023-09-07T10:10:47;101388.80;;;29.50
68127;BMP180;54931;52.098;21.006;2023-09-07T10:13:16;101387.40;;;29.10
68127;BMP180;54931;52.098;21.006;2023-09-07T10:15:44;101385.60;;;28.70
68127;BMP180;54931;52.098;21.006;2023-09-07T10:18:16;101387.60;;;28.22
68127;BMP180;54931;52.098;21.006;2023-09-07T10:20:58;101384.40;;;27.90
68127;BMP180;54931;52.098;21.006;2023-09-07T10:23:41;101380.60;;;27.70
68127;BMP180;54931;52.098;21.006;2023-09-07T10:26:17;101378.80;;;27.94
68127;BMP180;54931;52.098;21.006;2023-09-07T10:28:45;101377.00;;;28.26
68127;BMP180;54931;52.098;21.006;2023-09-07T10:33:42;101381.80;;;28.68
68127;BMP180;54931;52.098;21.006;2023-09-07T10:36:25;101382.60;;;28.50
68127;BMP180;54931;52.098;21.006;2023-09-07T10:38:56;101378.60;;;28.50
68127;BMP180;54931;52.098;21.006;2023-09-07T10:41:25;101373.80;;;28.70
68127;BMP180;54931;52.098;21.006;2023-09-07T10:43:54;101380.00;;;28.80
68127;BMP180;54931;52.098;21.006;2023-09-07T10:46:23;101382.60;;;28.50
68127;BMP180;54931;52.098;21.006;2023-09-07T10:48:53;101383.40;;;28.30
68127;BMP180;54931;52.098;21.006;2023-09-07T10:51:21;101382.40;;;28.00
68127;BMP180;54931;52.098;21.006;2023-09-07T10:53:49;101380.80;;;27.58
68127;BMP180;54931;52.098;21.006;2023-09-07T10:56:16;101377.60;;;27.32
68127;BMP180;54931;52.098;21.006;2023-09-07T10:58:44;101380.60;;;27.30
68127;BMP180;54931;52.098;21.006;2023-09-07T11:01:11;101382.40;;;27.20
68127;BMP180;54931;52.098;21.006;2023-09-07T11:03:39;101376.40;;;27.00
68127;BMP180;54931;52.098;21.006;2023-09-07T11:06:10;101373.80;;;26.90
68127;BMP180;54931;52.098;21.006;2023-09-07T11:08:39;101369.20;;;27.02
68127;BMP180;54931;52.098;21.006;2023-09-07T11:11:08;101369.60;;;27.20
68127;BMP180;54931;52.098;21.006;2023-09-07T11:13:36;101369.40;;;27.30
68127;BMP180;54931;52.098;21.006;2023-09-07T11:16:08;101368.00;;;27.44
68127;BMP180;54931;52.098;21.006;2023-09-07T11:18:36;101364.60;;;27.50
68127;BMP180;54931;52.098;21.006;2023-09-07T11:21:04;101356.40;;;27.50
68127;BMP180;54931;52.098;21.006;2023-09-07T11:23:31;101356.00;;;27.60
68127;BMP180;54931;52.098;21.006;2023-09-07T11:26:06;101350.60;;;27.60
68127;BMP180;54931;52.098;21.006;2023-09-07T11:28:34;101359.00;;;27.60
68127;BMP180;54931;52.098;21.006;2023-09-07T11:31:02;101350.20;;;27.60
68127;BMP180;54931;52.098;21.006;2023-09-07T11:33:33;101352.60;;;27.50
68127;BMP180;54931;52.098;21.006;2023-09-07T11:36:03;101352.60;;;27.60
68127;BMP180;54931;52.098;21.006;2023-09-07T11:38:37;101352.20;;;27.50
68127;BMP180;54931;52.098;21.006;2023-09-07T11:41:05;101349.00;;;27.60
68127;BMP180;54931;52.098;21.006;2023-09-07T11:43:33;101347.20;;;27.60
68127;BMP180;54931;52.098;21.006;2023-09-07T11:46:00;101354.40;;;27.72
68127;BMP180;54931;52.098;21.006;2023-09-07T11:48:28;101346.00;;;27.76
68127;BMP180;54931;52.098;21.006;2023-09-07T11:50:56;101351.40;;;27.70
68127;BMP180;54931;52.098;21.006;2023-09-07T11:53:23;101349.00;;;27.70
68127;BMP180;54931;52.098;21.006;2023-09-07T11:55:51;101346.60;;;27.70
68127;BMP180;54931;52.098;21.006;2023-09-07T11:58:19;101345.60;;;27.78
68127;BMP180;54931;52.098;21.006;2023-09-07T12:00:46;101343.20;;;27.80
68127;BMP180;54931;52.098;21.006;2023-09-07T12:03:14;101347.80;;;27.80
68127;BMP180;54931;52.098;21.006;2023-09-07T12:05:41;101346.00;;;27.90
68127;BMP180;54931;52.098;21.006;2023-09-07T12:08:11;101345.80;;;27.90
68127;BMP180;54931;52.098;21.006;2023-09-07T12:10:39;101343.00;;;27.90
68127;BMP180;54931;52.098;21.006;2023-09-07T12:13:08;101341.00;;;27.80
68127;BMP180;54931;52.098;21.006;2023-09-07T12:15:36;101337.00;;;27.80
68127;BMP180;54931;52.098;21.006;2023-09-07T12:18:04;101340.00;;;27.80
68127;BMP180;54931;52.098;21.006;2023-09-07T12:20:31;101342.60;;;27.70
68127;BMP180;54931;52.098;21.006;2023-09-07T12:22:59;101342.00;;;27.60
68127;BMP180;54931;52.098;21.006;2023-09-07T12:25:26;101343.80;;;27.40
68127;BMP180;54931;52.098;21.006;2023-09-07T12:27:54;101340.00;;;27.40
68127;BMP180;54931;52.098;21.006;2023-09-07T12:30:22;101339.00;;;27.48
68127;BMP180;54931;52.098;21.006;2023-09-07T12:32:52;101339.60;;;27.30
68127;BMP180;54931;52.098;21.006;2023-09-07T12:35:20;101334.40;;;27.10
68127;BMP180;54931;52.098;21.006;2023-09-07T12:37:49;101332.80;;;27.00
68127;BMP180;54931;52.098;21.006;2023-09-07T12:40:17;101332.20;;;27.02
68127;BMP180;54931;52.098;21.006;2023-09-07T12:42:46;101331.20;;;27.10
68127;BMP180;54931;52.098;21.006;2023-09-07T12:45:13;101324.40;;;27.10
68127;BMP180;54931;52.098;21.006;2023-09-07T12:47:44;101324.00;;;27.20
68127;BMP180;54931;52.098;21.006;2023-09-07T12:50:11;101321.60;;;27.20
68127;BMP180;54931;52.098;21.006;2023-09-07T12:52:41;101320.80;;;27.20
68127;BMP180;54931;52.098;21.006;2023-09-07T12:55:09;101323.00;;;27.22
68127;BMP180;54931;52.098;21.006;2023-09-07T12:57:36;101319.20;;;27.30
68127;BMP180;54931;52.098;21.006;2023-09-07T13:00:05;101316.80;;;27.40
68127;BMP180;54931;52.098;21.006;2023-09-07T13:02:34;101312.00;;;27.40
68127;BMP180;54931;52.098;21.006;2023-09-07T13:05:02;101311.40;;;27.20
68127;BMP180;54931;52.098;21.006;2023-09-07T13:07:34;101309.00;;;27.10
68127;BMP180;54931;52.098;21.006;2023-09-07T13:10:04;101305.00;;;27.00
68127;BMP180;54931;52.098;21.006;2023-09-07T13:12:33;101301.20;;;27.08
68127;BMP180;54931;52.098;21.006;2023-09-07T13:15:00;101298.60;;;27.20
68127;BMP180;54931;52.098;21.006;2023-09-07T13:17:28;101291.20;;;27.32
68127;BMP180;54931;52.098;21.006;2023-09-07T13:19:55;101291.00;;;27.40
68127;BMP180;54931;52.098;21.006;2023-09-07T13:22:23;101289.40;;;27.48
68127;BMP180;54931;52.098;21.006;2023-09-07T13:24:51;101286.80;;;27.50
68127;BMP180;54931;52.098;21.006;2023-09-07T13:27:18;101289.60;;;27.50
68127;BMP180;54931;52.098;21.006;2023-09-07T13:29:46;101286.20;;;27.50
68127;BMP180;54931;52.098;21.006;2023-09-07T13:32:13;101289.00;;;27.50
68127;BMP180;54931;52.098;21.006;2023-09-07T13:34:41;101286.20;;;27.60
68127;BMP180;54931;52.098;21.006;2023-09-07T13:37:09;101284.60;;;27.60
68127;BMP180;54931;52.098;21.006;2023-09-07T13:39:36;101286.80;;;27.70
68127;BMP180;54931;52.098;21.006;2023-09-07T13:42:04;101288.40;;;27.90
68127;BMP180;54931;52.098;21.006;2023-09-07T13:44:32;101288.40;;;27.90
68127;BMP180;54931;52.098;21.006;2023-09-07T13:46:59;101285.20;;;27.90
68127;BMP180;54931;52.098;21.006;2023-09-07T13:49:27;101278.80;;;28.10
68127;BMP180;54931;52.098;21.006;2023-09-07T13:51:55;101283.80;;;28.30
68127;BMP180;54931;52.098;21.006;2023-09-07T13:54:23;101281.20;;;28.40
68127;BMP180;54931;52.098;21.006;2023-09-07T13:56:50;101278.40;;;28.30